Airfield :
LOGIN :

Register | Disclaimer

   EN    FR    IT 

 










Legend :    VFR   Marginal VFR   IFR   Intensive IFR   Very Intensive IFR
Visi :
Ceiling :
>= 8 km
>= 3000ft
5 to 8 km
1000 to 3000 ft
1500m to 5 km
500 to 1000 ft
800 to 1500m
200 to 500 ft
< 800m
< 200 ft
Symbols :   Thunderstorms  Fog  Heavy snow  Heavy precipitations  Wind > 20 kt
SIGMETs :     Misc.  Thunderstorms  Icing  Turbulence  Mountain Waves  Volcanic Ashes







- Airport Elevation : 74 ft
- IATA code : EIN


EHEH - Eindhoven

CURRENT METAR :
  • 190540Z AUTO 03011KT 360V060 9999 SCT012 BKN016 OVC032 05/03 Q1022 GRN 03012KT 9999 SCT015 BKN020 BKN025

EXPIRED METARs :
  • 190525Z AUTO 03011KT 350V070 9999 FEW017 BKN020 BKN026 05/03 Q1022 WHT 03012KT 9999 SCT015 BKN020 BKN025
  • 190507Z AUTO 03010KT 360V060 9999 FEW016 BKN020 BKN028 04/03 Q1022 WHT
  • 190455Z AUTO 02008KT 9999 FEW024 OVC027 04/02 Q1022 BLU
  • 190434Z AUTO 02008KT 350V050 9999 FEW019 OVC024 04/02 Q1023 WHT
  • 190432Z AUTO 02008KT 350V050 9999 OVC025 04/02 Q1023 BLU
  • 190426Z AUTO 02008KT 350V050 9999 BKN022 OVC026 04/02 Q1023 WHT
  • 190409Z AUTO 03007KT 9000 BR BKN026 OVC029 03/02 Q1023 BLU
  • 190355Z AUTO 03008KT 360V060 8000 BR OVC027 03/02 Q1023 BLU
  • 190325Z AUTO 02009KT 6000 BR FEW007 OVC033 03/02 Q1023 WHT
  • 190255Z AUTO 02009KT 7000 BR FEW007 BKN180 02/01 Q1023 WHT

TAF COR TAF EHEH
Valid from the 19 at 00:00 until the 20 at 06:00 UTC


182354Z 1900/2006 06011KT 9999 SCT015 BKN020
TEMPO 1902/1909 SCT008 BKN010
PROB30
TEMPO 1903/1909 4000 -DZ SCT005 BKN007
BECMG 1909/1911 06015G25KT
No reported NOTAMs for that airfield.



MET'MAP, your aeronautical weather chart ! - Copyright ORBIFLY December 2007 - Disclaimer

ORBIFLY MET'MAP TEAM :

Programming & Development : Alexandra Zaïnal
Concept & Development : Baudouin d'Aumeries
Co-Development & Prog : Marc-Olivier Méhu
Technical & hardware support : Manuel Goepfert

Contact : metmap@orbifly.com




SOURCES & CREDITS :

   NOAA